createdAt,value
2017-11-25T00:00:30.675Z,18.53
2017-11-25T00:02:58.333Z,18.20
2017-11-25T00:05:26.102Z,19.97
2017-11-25T00:07:53.761Z,18.37
2017-11-25T00:10:21.504Z,20.20
2017-11-25T00:12:49.179Z,19.87
2017-11-25T00:15:16.906Z,20.80
2017-11-25T00:17:44.592Z,19.97
2017-11-25T00:20:12.349Z,19.80
2017-11-25T00:22:40.038Z,18.97
2017-11-25T00:25:07.774Z,17.47
2017-11-25T00:27:36.588Z,18.17
2017-11-25T00:30:04.328Z,19.80
2017-11-25T00:32:31.988Z,18.90
2017-11-25T00:34:59.716Z,20.27
2017-11-25T00:37:27.373Z,17.50
2017-11-25T00:39:55.037Z,19.97
2017-11-25T00:42:22.731Z,17.83
2017-11-25T00:44:50.384Z,19.50
2017-11-25T00:47:18.077Z,17.97
2017-11-25T00:49:45.745Z,18.90
2017-11-25T00:52:13.458Z,17.50
2017-11-25T00:54:41.128Z,20.20
2017-11-25T00:57:08.887Z,17.87
2017-11-25T00:59:36.561Z,17.83
2017-11-25T01:02:04.297Z,18.60
2017-11-25T01:04:31.975Z,19.00
2017-11-25T01:06:59.663Z,18.40
2017-11-25T01:09:27.279Z,18.73
2017-11-25T01:11:54.980Z,18.13
2017-11-25T01:14:22.640Z,17.53
2017-11-25T01:16:50.337Z,18.97
2017-11-25T01:19:17.990Z,17.33
2017-11-25T01:21:45.707Z,18.53
2017-11-25T01:24:13.367Z,18.03
2017-11-25T01:26:41.056Z,17.90
2017-11-25T01:29:08.852Z,18.40
2017-11-25T01:31:36.543Z,17.90
2017-11-25T01:34:04.206Z,18.83
2017-11-25T01:36:31.902Z,18.43
2017-11-25T01:38:59.577Z,18.63
2017-11-25T01:41:27.241Z,18.07
2017-11-25T01:43:54.965Z,17.50
2017-11-25T01:46:22.628Z,17.00
2017-11-25T01:48:50.320Z,17.30
2017-11-25T01:51:18.004Z,18.10
2017-11-25T01:53:45.694Z,18.20
2017-11-25T01:56:13.395Z,17.63
2017-11-25T01:58:41.099Z,17.03
2017-11-25T02:01:08.751Z,18.80
2017-11-25T02:03:36.461Z,17.23
2017-11-25T02:06:04.142Z,16.40
2017-11-25T02:08:31.837Z,18.17
2017-11-25T02:10:59.488Z,16.70
2017-11-25T02:13:27.175Z,17.57
2017-11-25T02:15:54.825Z,16.47
2017-11-25T02:18:22.557Z,15.43
2017-11-25T02:20:50.245Z,17.50
2017-11-25T02:23:17.979Z,17.30
2017-11-25T02:25:45.697Z,16.73
2017-11-25T02:28:13.442Z,16.40
2017-11-25T02:30:41.117Z,16.40
2017-11-25T02:33:08.791Z,15.60
2017-11-25T02:35:36.496Z,16.47
2017-11-25T02:38:04.165Z,17.10
2017-11-25T02:40:31.873Z,15.70
2017-11-25T02:42:59.532Z,16.57
2017-11-25T02:45:27.234Z,17.40
2017-11-25T02:47:54.898Z,16.83
2017-11-25T02:50:22.607Z,16.50
2017-11-25T02:52:50.290Z,14.43
2017-11-25T02:55:18.059Z,14.63
2017-11-25T02:57:45.734Z,17.87
2017-11-25T03:00:13.429Z,14.97
2017-11-25T03:02:41.088Z,15.37
2017-11-25T03:05:08.805Z,14.90
2017-11-25T03:07:36.480Z,16.50
2017-11-25T03:10:04.227Z,15.53
2017-11-25T03:12:31.922Z,15.37
2017-11-25T03:14:59.582Z,14.73
2017-11-25T03:17:27.273Z,16.23
2017-11-25T03:19:54.925Z,15.63
2017-11-25T03:22:22.613Z,13.57
2017-11-25T03:24:50.311Z,14.53
2017-11-25T03:27:18.029Z,15.30
2017-11-25T03:29:45.742Z,15.47
2017-11-25T03:32:13.461Z,14.60
2017-11-25T03:34:41.122Z,15.93
2017-11-25T03:37:08.826Z,15.93
2017-11-25T03:39:36.478Z,15.63
2017-11-25T03:42:04.208Z,15.23
2017-11-25T03:44:31.874Z,15.50
2017-11-25T03:46:59.569Z,15.73
2017-11-25T03:49:27.229Z,15.50
2017-11-25T03:51:54.952Z,15.47
2017-11-25T03:54:22.568Z,14.60
2017-11-25T03:56:50.329Z,15.57
2017-11-25T03:59:17.984Z,15.20
2017-11-25T04:01:45.676Z,14.40
2017-11-25T04:04:13.340Z,14.03
2017-11-25T04:06:41.044Z,15.73
2017-11-25T04:09:08.680Z,14.90
2017-11-25T04:11:36.353Z,15.40
2017-11-25T04:14:04.054Z,14.80
2017-11-25T04:16:31.709Z,14.33
2017-11-25T04:18:59.399Z,14.17
2017-11-25T04:21:27.046Z,14.63
2017-11-25T04:23:54.728Z,14.87
2017-11-25T04:26:22.382Z,15.40
2017-11-25T04:28:50.108Z,14.90
2017-11-25T04:31:17.754Z,16.53
2017-11-25T04:33:45.462Z,17.03
2017-11-25T04:36:13.121Z,16.77
2017-11-25T04:38:40.824Z,15.97
2017-11-25T04:41:08.493Z,17.30
2017-11-25T04:43:36.197Z,17.40
2017-11-25T04:46:03.872Z,15.87
2017-11-25T04:48:31.579Z,16.23
2017-11-25T04:50:59.271Z,15.20
2017-11-25T04:53:26.961Z,14.73
2017-11-25T04:55:54.664Z,14.83
2017-11-25T04:58:22.365Z,12.80
2017-11-25T05:00:50.104Z,13.73
2017-11-25T05:03:17.780Z,12.67
2017-11-25T05:05:45.475Z,12.73
2017-11-25T05:08:13.239Z,12.83
2017-11-25T05:10:40.892Z,13.60
2017-11-25T05:13:08.579Z,14.00
2017-11-25T05:15:36.268Z,13.80
2017-11-25T05:18:03.928Z,14.77
2017-11-25T05:20:31.654Z,14.00
2017-11-25T05:22:59.308Z,13.40
2017-11-25T05:25:27.016Z,15.30
2017-11-25T05:27:54.673Z,14.83
2017-11-25T05:30:22.382Z,14.80
2017-11-25T05:32:50.033Z,13.50
2017-11-25T05:35:17.743Z,13.50
2017-11-25T05:37:45.404Z,13.23
2017-11-25T05:40:13.096Z,12.47
2017-11-25T05:42:40.723Z,13.43
2017-11-25T05:45:08.421Z,11.57
2017-11-25T05:47:36.073Z,13.70
2017-11-25T05:50:03.766Z,12.43
2017-11-25T05:52:32.377Z,14.37
2017-11-25T05:55:00.148Z,15.77
2017-11-25T05:57:27.824Z,15.90
2017-11-25T05:59:55.523Z,15.40
2017-11-25T06:02:23.188Z,14.97
2017-11-25T06:04:50.830Z,16.30
2017-11-25T06:07:18.484Z,16.50
2017-11-25T06:09:46.152Z,15.73
2017-11-25T06:12:13.847Z,13.80
2017-11-25T06:14:41.501Z,13.43
2017-11-25T06:17:09.208Z,14.80
2017-11-25T06:19:36.867Z,12.83
2017-11-25T06:22:04.504Z,13.90
2017-11-25T06:24:32.160Z,13.67
2017-11-25T06:26:59.857Z,15.60
2017-11-25T06:29:27.525Z,15.23
2017-11-25T06:31:55.256Z,17.53
2017-11-25T06:34:22.958Z,14.40
2017-11-25T06:36:50.693Z,14.90
2017-11-25T06:39:18.386Z,15.97
2017-11-25T06:41:46.114Z,15.83
2017-11-25T06:44:13.831Z,16.07
2017-11-25T06:46:41.595Z,13.53
2017-11-25T06:49:09.277Z,13.97
2017-11-25T06:51:36.992Z,14.73
2017-11-25T06:54:04.657Z,13.63
2017-11-25T06:56:32.399Z,13.60
2017-11-25T06:59:00.064Z,13.00
2017-11-25T07:01:27.775Z,12.20
2017-11-25T07:03:55.472Z,11.53
2017-11-25T07:06:23.165Z,13.53
2017-11-25T07:08:50.825Z,11.80
2017-11-25T07:11:18.529Z,12.80
2017-11-25T07:13:46.188Z,11.93
2017-11-25T07:16:13.836Z,12.07
2017-11-25T07:18:41.556Z,12.23
2017-11-25T07:21:09.160Z,12.27
2017-11-25T07:23:36.877Z,12.00
2017-11-25T07:26:04.528Z,11.60
2017-11-25T07:28:32.213Z,11.60
2017-11-25T07:30:59.888Z,12.27
2017-11-25T07:33:27.591Z,11.30
2017-11-25T07:35:55.240Z,11.00
2017-11-25T07:38:22.950Z,11.87
2017-11-25T07:40:50.643Z,11.23
2017-11-25T07:43:18.335Z,12.30
2017-11-25T07:45:46.016Z,12.13
2017-11-25T07:48:13.713Z,11.03
2017-11-25T07:50:41.390Z,12.27
2017-11-25T07:53:09.111Z,13.33
2017-11-25T07:55:36.872Z,12.93
2017-11-25T07:58:04.536Z,14.30
2017-11-25T08:00:32.199Z,15.30
2017-11-25T08:02:59.895Z,12.47
2017-11-25T08:05:27.559Z,14.00
2017-11-25T08:07:55.283Z,17.97
2017-11-25T08:10:22.975Z,13.73
2017-11-25T08:12:50.678Z,14.70
2017-11-25T08:15:18.327Z,17.37
2017-11-25T08:17:46.013Z,14.70
2017-11-25T08:20:13.666Z,14.60
2017-11-25T08:22:41.381Z,16.40
2017-11-25T08:25:09.139Z,18.03
2017-11-25T08:27:36.816Z,12.80
2017-11-25T08:30:04.523Z,11.50
2017-11-25T08:32:32.200Z,11.60
2017-11-25T08:34:59.900Z,13.47
2017-11-25T08:37:27.558Z,14.00
2017-11-25T08:39:55.259Z,11.40
2017-11-25T08:42:22.916Z,12.80
2017-11-25T08:44:50.662Z,14.47
2017-11-25T08:47:18.332Z,14.80
2017-11-25T08:49:46.063Z,14.53
2017-11-25T08:52:13.744Z,13.27
2017-11-25T08:54:41.415Z,13.00
2017-11-25T08:57:09.141Z,11.70
2017-11-25T08:59:36.825Z,13.73
2017-11-25T09:02:04.535Z,14.60
2017-11-25T09:04:32.201Z,13.33
2017-11-25T09:06:59.911Z,14.80
2017-11-25T09:09:28.496Z,13.60
2017-11-25T09:11:56.206Z,13.77
2017-11-25T09:14:23.869Z,13.97
2017-11-25T09:16:51.572Z,14.07
2017-11-25T09:19:19.242Z,14.33
2017-11-25T09:21:46.925Z,13.37
2017-11-25T09:24:14.602Z,13.63
2017-11-25T09:26:42.313Z,12.00
2017-11-25T09:29:09.982Z,13.13
2017-11-25T09:31:37.684Z,11.30
2017-11-25T09:34:05.392Z,14.53
2017-11-25T09:36:33.071Z,17.23
2017-11-25T09:39:00.760Z,14.77
2017-11-25T09:41:28.447Z,14.50
2017-11-25T09:43:56.131Z,14.83
2017-11-25T09:46:23.792Z,14.63
2017-11-25T09:48:51.503Z,14.90
2017-11-25T09:51:19.171Z,15.20
2017-11-25T09:53:46.869Z,16.23
2017-11-25T09:56:14.566Z,15.00
2017-11-25T09:58:42.279Z,16.10
2017-11-25T10:01:09.996Z,15.33
2017-11-25T10:03:37.689Z,15.73
2017-11-25T10:06:05.357Z,17.70
2017-11-25T10:08:33.074Z,16.03
2017-11-25T10:11:00.762Z,16.50
2017-11-25T10:13:28.477Z,16.50
2017-11-25T10:15:56.141Z,17.07
2017-11-25T10:18:23.870Z,15.27
2017-11-25T10:20:51.552Z,12.37
2017-11-25T10:23:19.277Z,15.67
2017-11-25T10:25:46.973Z,15.57
2017-11-25T10:28:14.681Z,15.70
2017-11-25T10:30:42.386Z,13.93
2017-11-25T10:33:10.115Z,12.60
2017-11-25T10:35:37.768Z,11.80
2017-11-25T10:38:05.449Z,11.13
2017-11-25T10:40:33.172Z,10.83
2017-11-25T10:43:00.833Z,10.70
2017-11-25T10:45:28.569Z,9.77
2017-11-25T10:47:56.240Z,10.60
2017-11-25T10:50:23.994Z,9.67
2017-11-25T10:52:51.691Z,10.80
2017-11-25T10:55:20.306Z,11.00
2017-11-25T10:57:48.004Z,11.37
2017-11-25T11:00:15.707Z,10.03
2017-11-25T11:02:43.361Z,7.90
2017-11-25T11:05:11.062Z,9.43
2017-11-25T11:07:38.759Z,10.23
2017-11-25T11:10:06.449Z,10.17
2017-11-25T11:12:34.089Z,9.27
2017-11-25T11:15:01.793Z,10.27
2017-11-25T11:17:29.458Z,7.20
2017-11-25T11:19:57.152Z,10.73
2017-11-25T11:22:24.799Z,11.13
2017-11-25T11:24:52.540Z,10.00
2017-11-25T11:27:20.208Z,9.87
2017-11-25T11:29:47.871Z,9.80
2017-11-25T11:32:15.862Z,10.30
2017-11-25T11:34:43.521Z,10.80
2017-11-25T11:37:11.211Z,11.20
2017-11-25T11:39:38.872Z,10.30
2017-11-25T11:42:06.580Z,10.30
2017-11-25T11:44:34.242Z,10.17
2017-11-25T11:47:01.940Z,11.00
2017-11-25T11:49:29.610Z,9.43
2017-11-25T11:51:57.331Z,7.80
2017-11-25T11:54:25.056Z,11.03
2017-11-25T11:56:52.816Z,9.63
2017-11-25T11:59:20.465Z,12.00
2017-11-25T12:01:48.187Z,12.27
2017-11-25T12:04:15.835Z,12.60
2017-11-25T12:06:43.537Z,11.53
2017-11-25T12:09:11.232Z,10.07
2017-11-25T12:11:38.989Z,13.07
2017-11-25T12:14:06.732Z,8.27
2017-11-25T12:16:34.391Z,10.63
2017-11-25T12:19:02.088Z,12.13
2017-11-25T12:21:29.753Z,11.87
2017-11-25T12:23:57.442Z,12.70
2017-11-25T12:26:25.108Z,13.57
2017-11-25T12:28:52.793Z,12.80
2017-11-25T12:31:20.449Z,11.07
2017-11-25T12:33:48.179Z,10.77
2017-11-25T12:36:15.878Z,8.83
2017-11-25T12:38:43.620Z,9.63
2017-11-25T12:41:11.349Z,10.07
2017-11-25T12:43:39.080Z,9.13
2017-11-25T12:46:06.815Z,9.50
2017-11-25T12:48:34.568Z,11.57
2017-11-25T12:51:02.275Z,8.97
2017-11-25T12:53:30.001Z,9.10
2017-11-25T12:55:57.761Z,11.03
2017-11-25T12:58:25.460Z,9.17
2017-11-25T13:00:53.174Z,10.80
2017-11-25T13:03:20.861Z,11.17
2017-11-25T13:05:48.585Z,10.67
2017-11-25T13:08:16.243Z,10.60
2017-11-25T13:10:43.938Z,11.40
2017-11-25T13:13:11.626Z,9.50
2017-11-25T13:15:39.365Z,8.53
2017-11-25T13:18:07.065Z,10.67
2017-11-25T13:20:34.783Z,9.83
2017-11-25T13:23:02.452Z,10.67
2017-11-25T13:25:30.174Z,11.30
2017-11-25T13:27:57.837Z,10.83
2017-11-25T13:30:25.536Z,9.10
2017-11-25T13:32:53.212Z,10.10
2017-11-25T13:35:20.876Z,11.27
2017-11-25T13:37:48.521Z,11.23
2017-11-25T13:40:16.184Z,11.07
2017-11-25T13:42:43.893Z,12.43
2017-11-25T13:45:11.549Z,9.03
2017-11-25T13:47:39.280Z,9.57
2017-11-25T13:50:06.964Z,10.07
2017-11-25T13:52:34.664Z,9.33
2017-11-25T13:55:02.354Z,10.00
2017-11-25T13:57:30.075Z,9.90
2017-11-25T13:59:57.764Z,11.10
2017-11-25T14:02:25.468Z,10.63
2017-11-25T14:04:53.161Z,10.73
2017-11-25T14:07:20.892Z,10.47
2017-11-25T14:09:48.573Z,9.53
2017-11-25T14:12:16.269Z,10.63
2017-11-25T14:14:43.934Z,10.77
2017-11-25T14:17:12.545Z,11.50
2017-11-25T14:19:40.225Z,10.87
2017-11-25T14:22:07.854Z,10.90
2017-11-25T14:24:35.508Z,11.77
2017-11-25T14:27:03.215Z,12.23
2017-11-25T14:29:30.898Z,11.27
2017-11-25T14:31:58.583Z,11.27
2017-11-25T14:34:26.295Z,10.37
2017-11-25T14:36:53.958Z,12.43
2017-11-25T14:39:21.669Z,14.27
2017-11-25T14:41:49.293Z,13.10
2017-11-25T14:44:17.005Z,13.63
2017-11-25T14:46:44.655Z,12.70
2017-11-25T14:49:12.349Z,12.70
2017-11-25T14:51:40.014Z,14.27
2017-11-25T14:54:08.170Z,15.10
2017-11-25T14:56:35.899Z,14.40
2017-11-25T14:59:03.678Z,13.30
2017-11-25T15:01:31.389Z,13.93
2017-11-25T15:03:59.097Z,13.00
2017-11-25T15:06:26.762Z,12.20
2017-11-25T15:08:54.470Z,12.57
2017-11-25T15:11:22.144Z,13.43
2017-11-25T15:13:49.847Z,13.60
2017-11-25T15:16:17.541Z,12.33
2017-11-25T15:18:45.253Z,14.47
2017-11-25T15:21:12.920Z,13.30
2017-11-25T15:23:40.640Z,11.70
2017-11-25T15:26:08.320Z,12.93
2017-11-25T15:28:36.121Z,13.70
2017-11-25T15:31:03.775Z,13.83
2017-11-25T15:33:31.523Z,13.60
2017-11-25T15:35:59.261Z,13.20
2017-11-25T15:38:26.885Z,13.53
2017-11-25T15:40:54.584Z,13.73
2017-11-25T15:43:22.259Z,12.97
2017-11-25T15:45:49.966Z,14.70
2017-11-25T15:48:17.666Z,13.57
2017-11-25T15:50:45.420Z,15.57
2017-11-25T15:53:13.122Z,16.93
2017-11-25T15:55:40.893Z,15.30
2017-11-25T15:58:08.603Z,16.53
2017-11-25T16:00:36.323Z,16.47
2017-11-25T16:03:04.022Z,16.50
2017-11-25T16:05:31.743Z,16.13
2017-11-25T16:07:59.412Z,15.63
2017-11-25T16:10:27.144Z,16.00
2017-11-25T16:12:54.772Z,16.10
2017-11-25T16:15:22.497Z,17.30
2017-11-25T16:17:50.174Z,17.60
2017-11-25T16:20:17.896Z,18.40
2017-11-25T16:22:45.594Z,18.07
2017-11-25T16:25:13.309Z,17.80
2017-11-25T16:27:41.000Z,18.90
2017-11-25T16:30:08.727Z,16.97
2017-11-25T16:32:36.392Z,18.07
2017-11-25T16:35:04.106Z,18.07
2017-11-25T16:37:31.895Z,17.90
2017-11-25T16:39:59.560Z,17.83
2017-11-25T16:42:27.327Z,18.67
2017-11-25T16:44:54.994Z,18.30
2017-11-25T16:47:22.715Z,17.30
2017-11-25T16:49:50.372Z,16.90
2017-11-25T16:52:18.073Z,17.97
2017-11-25T16:54:45.735Z,16.97
2017-11-25T16:57:13.480Z,17.00
2017-11-25T16:59:41.141Z,16.70
2017-11-25T17:02:08.878Z,16.73
2017-11-25T17:04:36.568Z,15.77
2017-11-25T17:07:04.279Z,16.90
2017-11-25T17:09:31.976Z,16.53
2017-11-25T17:11:59.684Z,15.37
2017-11-25T17:14:28.226Z,16.07
2017-11-25T17:16:55.925Z,15.27
2017-11-25T17:19:23.601Z,15.50
2017-11-25T17:21:51.348Z,14.70
2017-11-25T17:24:19.007Z,15.87
2017-11-25T17:26:46.667Z,15.60
2017-11-25T17:29:14.358Z,15.63
2017-11-25T17:31:42.020Z,16.90
2017-11-25T17:34:09.742Z,17.07
2017-11-25T17:36:37.413Z,16.33
2017-11-25T17:39:05.114Z,15.70
2017-11-25T17:41:32.759Z,15.90
2017-11-25T17:44:00.505Z,15.57
2017-11-25T17:46:28.165Z,15.13
2017-11-25T17:48:55.895Z,15.73
2017-11-25T17:51:23.587Z,16.63
2017-11-25T17:53:51.296Z,17.87
2017-11-25T17:56:19.020Z,18.13
2017-11-25T17:58:46.717Z,17.90
2017-11-25T18:01:14.390Z,16.33
2017-11-25T18:03:42.119Z,16.20
2017-11-25T18:06:09.802Z,15.00
2017-11-25T18:08:37.561Z,14.03
2017-11-25T18:11:05.235Z,13.83
2017-11-25T18:13:32.908Z,14.30
2017-11-25T18:16:00.638Z,14.50
2017-11-25T18:18:28.315Z,13.07
2017-11-25T18:20:56.015Z,13.47
2017-11-25T18:23:23.692Z,14.10
2017-11-25T18:25:51.381Z,14.60
2017-11-25T18:28:19.073Z,14.40
2017-11-25T18:30:46.780Z,14.40
2017-11-25T18:33:14.437Z,14.33
2017-11-25T18:35:42.137Z,13.93
2017-11-25T18:38:09.806Z,15.37
2017-11-25T18:40:37.534Z,15.17
2017-11-25T18:43:05.200Z,14.07
2017-11-25T18:45:32.933Z,13.07
2017-11-25T18:48:00.643Z,13.87
2017-11-25T18:50:28.416Z,14.10
2017-11-25T18:52:56.099Z,12.97
2017-11-25T18:55:24.820Z,15.00
2017-11-25T18:57:52.723Z,15.30
2017-11-25T19:00:20.437Z,14.97
2017-11-25T19:02:48.063Z,15.87
2017-11-25T19:05:15.733Z,14.67
2017-11-25T19:07:43.455Z,14.23
2017-11-25T19:10:11.120Z,15.00
2017-11-25T19:12:38.837Z,13.83
2017-11-25T19:15:06.505Z,15.27
2017-11-25T19:17:34.193Z,14.90
2017-11-25T19:20:01.923Z,15.97
2017-11-25T19:22:29.688Z,14.70
2017-11-25T19:24:57.364Z,14.70
2017-11-25T19:27:25.077Z,15.73
2017-11-25T19:29:52.755Z,14.03
2017-11-25T19:32:20.465Z,14.27
2017-11-25T19:34:48.162Z,14.10
2017-11-25T19:37:15.859Z,14.40
2017-11-25T19:39:43.520Z,14.77
2017-11-25T19:42:11.219Z,16.43
2017-11-25T19:44:38.952Z,15.63
2017-11-25T19:47:06.710Z,14.07
2017-11-25T19:49:34.427Z,13.17
2017-11-25T19:52:02.178Z,15.30
2017-11-25T19:54:29.886Z,12.73
2017-11-25T19:56:57.625Z,13.67
2017-11-25T19:59:25.318Z,14.03
2017-11-25T20:01:52.988Z,13.20
2017-11-25T20:04:20.688Z,13.10
2017-11-25T20:06:48.345Z,13.90
2017-11-25T20:09:16.051Z,13.87
2017-11-25T20:11:43.704Z,13.10
2017-11-25T20:14:11.406Z,13.83
2017-11-25T20:16:39.082Z,14.10
2017-11-25T20:19:06.793Z,13.47
2017-11-25T20:21:34.448Z,13.67
2017-11-25T20:24:02.137Z,12.60
2017-11-25T20:26:29.820Z,12.70
2017-11-25T20:28:57.534Z,13.50
2017-11-25T20:31:25.198Z,12.10
2017-11-25T20:33:52.970Z,12.93
2017-11-25T20:36:20.624Z,13.23
2017-11-25T20:38:48.320Z,14.10
2017-11-25T20:41:15.998Z,13.90
2017-11-25T20:43:43.718Z,13.20
2017-11-25T20:46:11.385Z,14.67
2017-11-25T20:48:39.065Z,13.97
2017-11-25T20:51:06.798Z,14.53
2017-11-25T20:53:34.493Z,14.60
2017-11-25T20:56:02.247Z,15.20
2017-11-25T20:58:29.925Z,15.30
2017-11-25T21:00:57.637Z,15.00
2017-11-25T21:03:25.305Z,15.47
2017-11-25T21:05:53.011Z,15.93
2017-11-25T21:08:20.688Z,13.60
2017-11-25T21:10:48.382Z,14.00
2017-11-25T21:13:16.037Z,13.30
2017-11-25T21:15:43.754Z,14.20
2017-11-25T21:18:11.432Z,16.10
2017-11-25T21:20:39.129Z,15.90
2017-11-25T21:23:06.789Z,15.47
2017-11-25T21:25:34.501Z,16.70
2017-11-25T21:28:02.194Z,16.57
2017-11-25T21:30:29.906Z,16.13
2017-11-25T21:32:57.607Z,15.17
2017-11-25T21:35:25.272Z,15.03
2017-11-25T21:37:53.001Z,15.50
2017-11-25T21:40:20.703Z,16.90
2017-11-25T21:42:48.405Z,18.17
2017-11-25T21:45:16.091Z,17.70
2017-11-25T21:47:44.595Z,16.60
2017-11-25T21:50:12.263Z,17.70
2017-11-25T21:52:39.945Z,18.93
2017-11-25T21:55:07.636Z,16.60
2017-11-25T21:57:35.410Z,17.30
2017-11-25T22:00:03.095Z,20.00
2017-11-25T22:02:30.817Z,17.90
2017-11-25T22:04:58.495Z,17.87
2017-11-25T22:07:26.202Z,16.57
2017-11-25T22:09:53.870Z,17.73
2017-11-25T22:12:21.579Z,17.80
2017-11-25T22:14:49.266Z,16.60
2017-11-25T22:17:16.964Z,17.50
2017-11-25T22:19:44.625Z,16.30
2017-11-25T22:22:12.341Z,16.67
2017-11-25T22:24:40.016Z,16.30
2017-11-25T22:27:07.691Z,17.90
2017-11-25T22:29:35.453Z,18.00
2017-11-25T22:32:03.129Z,16.83
2017-11-25T22:34:30.865Z,16.73
2017-11-25T22:36:58.585Z,16.90
2017-11-25T22:39:26.327Z,16.27
2017-11-25T22:41:54.013Z,16.90
2017-11-25T22:44:22.127Z,16.87
2017-11-25T22:46:50.115Z,16.60
2017-11-25T22:49:17.809Z,17.57
2017-11-25T22:51:45.472Z,17.17
2017-11-25T22:54:13.163Z,16.37
2017-11-25T22:56:40.856Z,16.23
2017-11-25T22:59:08.557Z,16.70
2017-11-25T23:01:36.231Z,16.63
2017-11-25T23:04:03.933Z,16.10
2017-11-25T23:06:31.595Z,15.53
2017-11-25T23:08:59.301Z,16.80
2017-11-25T23:11:26.989Z,16.47
2017-11-25T23:13:54.709Z,15.03
2017-11-25T23:16:22.382Z,14.60
2017-11-25T23:18:50.053Z,15.80
2017-11-25T23:21:17.709Z,14.47
2017-11-25T23:23:45.381Z,15.60
2017-11-25T23:26:13.106Z,15.27
2017-11-25T23:28:40.781Z,15.17
2017-11-25T23:31:08.480Z,17.17
2017-11-25T23:33:36.149Z,16.37
2017-11-25T23:36:03.850Z,14.50
2017-11-25T23:38:31.461Z,15.57
2017-11-25T23:40:59.165Z,14.37
2017-11-25T23:43:26.853Z,13.73
2017-11-25T23:45:54.561Z,14.70
2017-11-25T23:48:22.231Z,14.57
2017-11-25T23:50:49.933Z,13.37
2017-11-25T23:53:17.598Z,13.97
2017-11-25T23:55:45.332Z,14.90
2017-11-25T23:58:12.998Z,14.47
